Nearby METAR Reports

 

EBAW - Antwerp/Deurne, Belgium
Distance from station: ZZO 9km
Ververst: 25/06/2022 21:20
Lichte regen, Showers, Gedeeltelijk bewolkt
Lichte regen, Showers, Gedeeltelijk bewolkt
 Wind van calm
Wind: Kalm
Temperatuur: 15°C
Dauwpunt: 13°C
Vochtigheid: 88%
Barometer: 1011 hPa
Overzicht: Lichte regen, Showers
Clouds: Gedeeltelijk bewolkt
Visibility: 10 km
2022/06/25 19:20 EBAW 251920Z 00000KT 9999 -SHRA NSC 15/13 Q1011 TEMPO 4000 SHRA
EHWO - Woensdrecht Rnla, Netherlands
Distance from station: NNW 20km
Ververst: 25/06/2022 21:25
Drizzle, Zwaar bewolkt
Drizzle, Zwaar bewolkt
 Wind van ZO
Wind: ZO 4 km/h
Temperatuur: 16°C
Dauwpunt: 15°C
Vochtigheid: 94%
Barometer: 1011 hPa
Overzicht: Drizzle
Clouds: Zwaar bewolkt
Visibility: 10 km
Cloud details: Few Clouds 2408 m
Meestal bewolkt 2652 m
Zwaar bewolkt 3658 m
2022/06/25 19:25 EHWO 251925Z AUTO 13002KT 9999 DZ FEW079 BKN087 OVC120 16/15 Q1011 BLU
 
EBBR - Brussels Nationa, Belgium
Distance from station: Z 43km
Ververst: 25/06/2022 21:20
Lichte regen, Few clouds
Lichte regen, Few clouds
 Wind van varies
Wind: varies 2 km/h
Temperatuur: 15°C
Dauwpunt: 13°C
Vochtigheid: 88%
Barometer: 1012 hPa
Overzicht: Lichte regen
Clouds: Few Clouds
Visibility: 10 km
Cloud details: Few Clouds 305 m
2022/06/25 19:20 EBBR 251920Z VRB01KT 9999 -RA FEW010 15/13 Q1012 TEMPO 4000 SHRA
EHGR - Gilze-Rijen Rnla, Netherlands
Distance from station: NO 47km
Ververst: 25/06/2022 21:25
Meestal bewolkt
Meestal bewolkt
 Wind van W
Wind: W 6 km/h
Temperatuur: 17°C
Dauwpunt: 16°C
Vochtigheid: 94%
Barometer: 1011 hPa
Clouds: Meestal bewolkt
Visibility: 10 km
Cloud details: Few Clouds 1768 m
Gedeeltelijk bewolkt 2195 m
Meestal bewolkt 2347 m
2022/06/25 19:25 EHGR 251925Z AUTO 27003KT 9999 FEW058 SCT072 BKN077 17/16 Q1011 BLU
 
EBDT - Schaffen, Belgium
Distance from station: OZO 54km
Ververst: 25/06/2022 21:25
Meestal bewolkt
Meestal bewolkt
 Wind van WNW
Wind: WNW 6 km/h
Temperatuur: 16°C
Dauwpunt: 16°C
Vochtigheid: 100%
Barometer: 1011 hPa
Clouds: Meestal bewolkt
Visibility: 10 km
Cloud details: Few Clouds 213 m
Meestal bewolkt 2408 m
Meestal bewolkt 3658 m
2022/06/25 19:25 EBDT 251925Z AUTO 30003KT 9999 FEW007/// BKN079/// BKN120/// 16/16 Q1011 BLU
EHFS - Vlissingen, Netherlands
Distance from station: WNW 60km
Ververst: 25/06/2022 21:25
Gedeeltelijk bewolkt
Gedeeltelijk bewolkt
 Wind van OZO
Wind: OZO 28 km/h
Temperatuur: 17°C
Dauwpunt: 14°C
Vochtigheid: 83%
Barometer: 1010 hPa
Clouds: Gedeeltelijk bewolkt
Visibility: 10 km
2022/06/25 19:25 EHFS 251925Z AUTO 12015KT 9999 NSC 17/14 Q1010
 
EBBE - Beauvechain (baf, Belgium
Distance from station: ZZO 64km
Ververst: 25/06/2022 21:25
Lichte regen, Zwaar bewolkt
Lichte regen, Zwaar bewolkt
 Wind van W
Wind: W 6 km/h
Temperatuur: 16°C
Dauwpunt: 14°C
Vochtigheid: 88%
Barometer: 1012 hPa
Overzicht: Lichte regen
Clouds: Zwaar bewolkt
Visibility: 10 km
Cloud details: Few Clouds 1829 m
Meestal bewolkt 2286 m
Zwaar bewolkt 2896 m
2022/06/25 19:25 EBBE 251925Z AUTO 26003KT 9999 -RA FEW060/// BKN075/// OVC095/// 16/14 Q1012 BLU
EHEH - Eindhoven Rnlafb, Netherlands
Distance from station: ONO 69km
Ververst: 25/06/2022 21:25
Zwaar bewolkt
Zwaar bewolkt
 Wind van varies
Wind: varies 4 km/h
Temperatuur: 18°C
Dauwpunt: 16°C
Vochtigheid: 88%
Barometer: 1011 hPa
Clouds: Zwaar bewolkt
Visibility: 10 km
Cloud details: Gedeeltelijk bewolkt 2012 m
Zwaar bewolkt 2195 m
2022/06/25 19:25 EHEH 251925Z AUTO VRB02KT 9999 SCT066 OVC072 18/16 Q1011 BLU TEMPO 24010G20KT 4500 -SHRA TSRA SCT016 SCT030CB
 
EBBL - Kleine-Brogel(Ba, Belgium
Distance from station: O 74km
Ververst: 25/06/2022 21:25
Zwaar bewolkt
Zwaar bewolkt
 Wind van varies
Wind: varies 2 km/h
Temperatuur: 18°C
Dauwpunt: 15°C
Vochtigheid: 83%
Barometer: 1011 hPa
Clouds: Zwaar bewolkt
Cloud details: Zwaar bewolkt 2530 m
2022/06/25 19:25 EBBL 251925Z AUTO VRB01KT //// OVC083/// 18/15 Q1011 BLU
EHRD - Rotterdam Airpor, Netherlands
Distance from station: N 75km
Ververst: 25/06/2022 21:25
Gedeeltelijk bewolkt
Gedeeltelijk bewolkt
 Wind van NO
Wind: NO 2 km/h
Temperatuur: 16°C
Dauwpunt: 15°C
Vochtigheid: 94%
Barometer: 1011 hPa
Clouds: Gedeeltelijk bewolkt
Visibility: 10 km
2022/06/25 19:25 EHRD 251925Z AUTO 04001KT 9999 NSC 16/15 Q1011 REDZ NOSIG
 
EHSC - Goeree Le Sea, Netherlands
Distance from station: NW 89km
Ververst: 25/06/2022 21:25

 Wind van OZO
Wind: OZO 24 km/h
Temperatuur: 16°C
Dauwpunt: 13°C
Vochtigheid: 83%
Barometer: 1010 hPa
Visibility: 10 km
2022/06/25 19:25 EHSC 251925Z AUTO 11013KT 9999 ///////// 16/13 Q1010 W17/H5
EBCI - Charleroi/Gossel, Belgium
Distance from station: Z 90km
Ververst: 25/06/2022 21:20
Lichte regen, Few clouds
Lichte regen, Few clouds
 Wind van varies
Wind: varies 4 km/h
Temperatuur: 14°C
Dauwpunt: 13°C
Vochtigheid: 94%
Barometer: 1012 hPa
Overzicht: Lichte regen
Clouds: Few Clouds
Visibility: 10 km
Cloud details: Few Clouds 610 m
2022/06/25 19:20 EBCI 251920Z VRB02KT 9999 -RA FEW020 14/13 Q1012 TEMPO 4000 RA
 
EBCV - Chievres Ab, Belgium
Distance from station: ZZW 90km
Ververst: 25/06/2022 21:25
Lichte regen, Zwaar bewolkt
Lichte regen, Zwaar bewolkt
 Wind van ZO
Wind: ZO 11 km/h
Temperatuur: 14°C
Dauwpunt: 14°C
Vochtigheid: 100%
Barometer: 1011 hPa
Overzicht: Lichte regen
Clouds: Zwaar bewolkt
Visibility: 10 km
Cloud details: Gedeeltelijk bewolkt 792 m
Zwaar bewolkt 1463 m
2022/06/25 19:25 EBCV 251925Z AUTO 13006KT 9999 -RA SCT026/// OVC048/// 14/14 Q1011 BLU
EHVK - Volkel Rnlafb, Netherlands
Distance from station: ONO 97km
Ververst: 25/06/2022 21:25
Zwaar bewolkt
Zwaar bewolkt
 Wind van NNW
Wind: NNW 6 km/h
Temperatuur: 17°C
Dauwpunt: 16°C
Vochtigheid: 94%
Barometer: 1011 hPa
Clouds: Zwaar bewolkt
Visibility: 10 km
Cloud details: Gedeeltelijk bewolkt 2530 m
Zwaar bewolkt 2713 m
2022/06/25 19:25 EHVK 251925Z AUTO 34003KT 300V010 9999 SCT083 OVC089 17/16 Q1011 BLU
 
EBLG - Bierset/Liege (c, Belgium
Distance from station: ZO 102km
Ververst: 25/06/2022 21:20
Gedeeltelijk bewolkt
Gedeeltelijk bewolkt
 Wind van WNW
Wind: WNW 7 km/h
Temperatuur: 17°C
Dauwpunt: 15°C
Vochtigheid: 88%
Barometer: 1012 hPa
Clouds: Gedeeltelijk bewolkt
Visibility: 10 km
Cloud details: Gedeeltelijk bewolkt 244 m
2022/06/25 19:20 EBLG 251920Z 29004KT 260V320 9999 SCT008 17/15 Q1012 TEMPO BKN008 TEMPO FM2100 3500 RA
EHBK - Zuid-Limburg/Bee, Netherlands
Distance from station: OZO 102km
Ververst: 25/06/2022 21:25
Gedeeltelijk bewolkt
Gedeeltelijk bewolkt
 Wind van NNW
Wind: NNW 9 km/h
Temperatuur: 18°C
Dauwpunt: 16°C
Vochtigheid: 88%
Barometer: 1011 hPa
Clouds: Gedeeltelijk bewolkt
Visibility: 10 km
2022/06/25 19:25 EHBK 251925Z AUTO 33005KT 280V010 9999 NSC 18/16 Q1011 NOSIG
 
EBOS - Oostende Airport, Belgium
Distance from station: W 108km
Ververst: 25/06/2022 21:20
Few Clouds
Few Clouds
 Wind van ZZO
Wind: ZZO 13 km/h
Temperatuur: 16°C
Dauwpunt: 13°C
Vochtigheid: 83%
Barometer: 1011 hPa
Clouds: Few Clouds
Visibility: 10 km
Cloud details: Few Clouds 488 m
2022/06/25 19:20 EBOS 251920Z 15007KT 9999 FEW016 16/13 Q1011 NOSIG
EHSA - Euro Platform, Netherlands
Distance from station: NW 112km
Ververst: 25/06/2022 21:25

 Wind van ZO
Wind: ZO 9 km/h
Temperatuur: 16°C
Dauwpunt: 13°C
Vochtigheid: 83%
Barometer: 1011 hPa
Visibility: 10 km
2022/06/25 19:25 EHSA 251925Z AUTO 14005KT 9999 ///////// 16/13 Q1011 W16/H5
 
EHAM - Amsterdam/Schiph, Netherlands
Distance from station: NNO 118km
Ververst: 25/06/2022 21:25
Lichte regen, Few clouds
Lichte regen, Few clouds
 Wind van NNO
Wind: NNO 7 km/h
Temperatuur: 16°C
Dauwpunt: 15°C
Vochtigheid: 94%
Barometer: 1011 hPa
Overzicht: Lichte regen
Clouds: Few Clouds
Visibility: 10 km
Cloud details: Few Clouds 457 m
2022/06/25 19:25 EHAM 251925Z 02004KT 340V070 9999 -RA FEW015 16/15 Q1011 RERA NOSIG
ETNG - Geilenkirchen(Na, Germany
Distance from station: OZO 118km
Ververst: 24/06/2022 19:50
NOT Current
Gedeeltelijk bewolkt
Gedeeltelijk bewolkt
 Wind van Z
Wind: Z 7 km/h
Temperatuur: 22°C
Dauwpunt: 16°C
Vochtigheid: 69%
Barometer: 1007 hPa
Clouds: Gedeeltelijk bewolkt
Visibility: 10 km
Cloud details: Few Clouds 762 m
Gedeeltelijk bewolkt 1524 m
2022/06/24 17:50 ETNG 241750Z 18004KT 9999 FEW025 SCT050 22/16 Q1007